Meteo

Meteo


Dettagli e Storico

Webcam

Webcam in aeroporto – Aggiornata ogni minuto

Osservatorio Meteorologico Cocomaro di Cona – Ferrara

NOAA IMAGE

NOAA

Windy

METAR

Aviation Digital Data Service (ADDS)

Output produced by METARs form (1706 UTC 04 April 2020)
found at http://www.aviationweather.gov/metar/data/
 
METAR text: LIPF 041655Z /////KT CAVOK 18/02 Q1020
Conditions at: LIPF (FERRARA (AUT) , IT) observed 1655 UTC 04 April 2020
Temperature: 18.0°C (64°F)
Dewpoint: 2.0°C (36°F) [RH = 34%]
Pressure (altimeter): 30.12 inches Hg (1020.0 mb)
Winds: missing
Visibility: 6 or more miles (10+ km)
Ceiling: ceiling and visibility are OK
Clouds: unknown
Weather: no significant weather observed at this time

METAR text: LIPE 041650Z 09005KT 050V120 CAVOK 17/M01 Q1020
Conditions at: LIPE (BOLOGNA/BORGO (A, IT) observed 1650 UTC 04 April 2020
Temperature: 17.0°C (63°F)
Dewpoint: -1.0°C (30°F) [RH = 29%]
Pressure (altimeter): 30.12 inches Hg (1020.0 mb)
Winds: from the E (90 degrees) at 6 MPH (5 knots; 2.6 m/s)
Visibility: 6 or more miles (10+ km)
Ceiling: ceiling and visibility are OK
Clouds: unknown
Weather: no significant weather observed at this time

Forecast for: LIPE (BOLOGNA/BORGO (A, IT)
Text: TAF LIPE 041100Z 0412/0512 VRB05KT CAVOK
Forecast period: 1200 UTC 04 April 2020 to 0800 UTC 05 April 2020
Forecast type: FROM: standard forecast or significant change
Winds: variable direction winds at 6 MPH (5 knots; 2.6 m/s)
Visibility: 6 or more miles 10+ km)
Ceiling: unknown
Clouds: missing
Weather: NSW  (no significant weather)
Text: BECMG 0508/0510 07010KT
Forecast period: 0800 to 1200 UTC 05 April 2020
Forecast type: BECOMING: Conditions expected to become as follows by 1000 UTC 05 April 2020
Winds: from the ENE (70 degrees) at 12 MPH (10 knots; 5.1 m/s)
Visibility: 6 or more miles 10+ km)
Ceiling: unknown
Clouds: missing
Weather: NSW  (no significant weather)

METAR text: LIPX 041650Z 21004KT CAVOK 17/01 Q1020
Conditions at: LIPX (VILLAFRANCA(CV/M, IT) observed 1650 UTC 04 April 2020
Temperature: 17.0°C (63°F)
Dewpoint: 1.0°C (34°F) [RH = 34%]
Pressure (altimeter): 30.12 inches Hg (1020.0 mb)
Winds: from the SSW (210 degrees) at 5 MPH (4 knots; 2.1 m/s)
Visibility: 6 or more miles (10+ km)
Ceiling: ceiling and visibility are OK
Clouds: unknown
Weather: no significant weather observed at this time

Forecast for: LIPX (VILLAFRANCA(CV/M, IT)
Text: TAF LIPX 041400Z 0415/0424 VRB05KT CAVOK
Forecast period: 1500 UTC 04 April 2020 to 0000 UTC 05 April 2020
Forecast type: FROM: standard forecast or significant change
Winds: variable direction winds at 6 MPH (5 knots; 2.6 m/s)
Visibility: 6 or more miles 10+ km)
Ceiling: unknown
Clouds: missing
Weather: NSW  (no significant weather)

METAR text: LIPZ 041650Z 16003KT CAVOK 16/02 Q1020 NOSIG
Conditions at: LIPZ (VENEZIA/TESSERA , IT) observed 1650 UTC 04 April 2020
Temperature: 16.0°C (61°F)
Dewpoint: 2.0°C (36°F) [RH = 39%]
Pressure (altimeter): 30.12 inches Hg (1020.0 mb)
Winds: from the SSE (160 degrees) at 3 MPH (3 knots; 1.5 m/s)
Visibility: 6 or more miles (10+ km)
Ceiling: ceiling and visibility are OK
Clouds: unknown
Weather: no significant weather observed at this time

Forecast for: LIPZ (VENEZIA/TESSERA , IT)
Text: TAF LIPZ 041100Z 0412/0518 13008KT CAVOK
Forecast period: 1200 to 1800 UTC 04 April 2020
Forecast type: FROM: standard forecast or significant change
Winds: from the SE (130 degrees) at 9 MPH (8 knots; 4.1 m/s)
Visibility: 6 or more miles 10+ km)
Ceiling: unknown
Clouds: missing
Weather: NSW  (no significant weather)
Text: BECMG 0418/0420 04010KT
Forecast period: 1800 UTC 04 April 2020 to 1800 UTC 05 April 2020
Forecast type: BECOMING: Conditions expected to become as follows by 2000 UTC 04 April 2020
Winds: from the NE (40 degrees) at 12 MPH (10 knots; 5.1 m/s)
Visibility: 6 or more miles 10+ km)
Ceiling: unknown
Clouds: missing
Weather: NSW  (no significant weather)